Time;durP1;ratioP1;P1;durP2;ratioP2;P2;SDS_P1;SDS_P2;PMS_P1;PMS_P2;Temp;Humidity;BMP_temperature;BMP_pressure;BME280_temperature;BME280_humidity;BME280_pressure;Samples;Min_cycle;Max_cycle;Signal;HPM_P1;HPM_P2
2022/05/09 00:01:50;;;;;;;6.90;6.20;;;12.40;99.90;;;;;;5039218;28;20044;-84
2022/05/09 00:04:16;;;;;;;8.02;7.25;;;12.40;99.90;;;;;;5038455;28;20116;-84
2022/05/09 00:06:42;;;;;;;8.43;7.20;;;12.40;99.90;;;;;;5038538;28;20115;-83
2022/05/09 00:09:07;;;;;;;6.32;5.72;;;12.30;99.90;;;;;;5039225;28;20036;-83
2022/05/09 00:11:34;;;;;;;6.40;5.78;;;12.30;99.90;;;;;;5039091;28;20061;-84
2022/05/09 00:14:00;;;;;;;6.07;5.55;;;12.30;99.90;;;;;;5039705;28;20018;-84
2022/05/09 00:16:33;;;;;;;8.88;7.90;;;12.20;99.90;;;;;;5047313;28;20018;-84
2022/05/09 00:19:08;;;;;;;12.18;10.85;;;12.20;99.90;;;;;;5052927;28;20025;-84
2022/05/09 00:21:37;;;;;;;12.63;11.32;;;12.20;99.90;;;;;;5023124;28;20107;-82
2022/05/09 00:24:04;;;;;;;12.88;10.70;;;12.00;99.90;;;;;;5022085;28;20073;-84
2022/05/09 00:26:32;;;;;;;11.98;10.35;;;11.90;99.90;;;;;;5042301;28;20037;-83
2022/05/09 00:29:00;;;;;;;13.18;11.85;;;11.90;99.90;;;;;;5044284;28;20022;-84
2022/05/09 00:31:26;;;;;;;14.55;11.95;;;11.90;99.90;;;;;;5054393;28;20033;-84
2022/05/09 00:33:52;;;;;;;13.00;11.60;;;11.80;99.90;;;;;;5054230;28;20044;-84
2022/05/09 00:36:17;;;;;;;14.95;10.90;;;11.80;99.90;;;;;;5054130;28;20033;-84
2022/05/09 00:38:47;;;;;;;12.95;11.63;;;11.70;99.90;;;;;;5054207;28;20094;-84
2022/05/09 00:41:29;;;;;;;13.38;11.32;;;11.70;99.90;;;;;;5054871;28;20010;-85
2022/05/09 00:43:56;;;;;;;13.32;10.35;;;11.70;99.90;;;;;;5036745;28;20030;-83
2022/05/09 00:46:23;;;;;;;13.30;10.50;;;11.60;99.90;;;;;;5035449;28;20026;-83
2022/05/09 00:48:49;;;;;;;11.65;10.45;;;11.60;99.90;;;;;;5043397;28;20063;-83
2022/05/09 00:51:19;;;;;;;11.35;10.15;;;11.50;99.90;;;;;;5040489;28;20036;-83
2022/05/09 00:53:47;;;;;;;11.35;10.25;;;11.50;99.90;;;;;;5022028;28;20029;-83
2022/05/09 00:56:22;;;;;;;11.75;10.55;;;11.50;99.90;;;;;;5038925;28;20022;-82
2022/05/09 00:59:02;;;;;;;13.50;11.57;;;11.50;99.90;;;;;;5042096;28;20478;-84
2022/05/09 01:01:28;;;;;;;12.27;11.07;;;11.50;99.90;;;;;;5042907;28;20084;-84
2022/05/09 01:04:05;;;;;;;11.38;9.93;;;11.50;99.90;;;;;;5031418;28;20066;-85
2022/05/09 01:06:32;;;;;;;15.93;10.43;;;11.50;99.90;;;;;;5024392;28;20543;-84
2022/05/09 01:08:57;;;;;;;10.45;9.20;;;11.50;99.90;;;;;;5041821;28;20077;-83
2022/05/09 01:11:26;;;;;;;10.57;8.85;;;11.50;99.90;;;;;;5042116;28;20519;-82
2022/05/09 01:13:59;;;;;;;9.20;8.25;;;11.50;99.90;;;;;;5022432;28;20061;-84
2022/05/09 01:16:25;;;;;;;8.80;7.97;;;11.50;99.90;;;;;;5022713;28;20022;-82
2022/05/09 01:18:52;;;;;;;8.90;8.00;;;11.50;99.90;;;;;;5019194;28;20074;-82
2022/05/09 01:21:39;;;;;;;8.35;7.55;;;11.50;99.90;;;;;;5023994;28;20033;-83
2022/05/09 01:24:13;;;;;;;6.82;6.15;;;11.50;99.90;;;;;;5041149;28;20030;-82
2022/05/09 01:26:41;;;;;;;6.65;6.05;;;11.50;99.90;;;;;;5041454;28;20018;-82
2022/05/09 01:29:17;;;;;;;6.35;5.75;;;11.50;99.90;;;;;;5040775;28;20057;-84
2022/05/09 01:31:43;;;;;;;6.28;5.68;;;11.50;99.90;;;;;;5041982;28;20041;-83
2022/05/09 01:34:14;;;;;;;6.25;5.65;;;11.50;99.90;;;;;;5042799;28;20060;-83
2022/05/09 01:36:40;;;;;;;6.25;5.65;;;11.40;99.90;;;;;;5043352;28;20022;-83
2022/05/09 01:39:10;;;;;;;7.28;6.43;;;11.40;99.90;;;;;;5043284;28;20025;-84
2022/05/09 01:41:44;;;;;;;6.15;5.55;;;11.40;99.90;;;;;;5045159;28;20393;-84
2022/05/09 01:44:12;;;;;;;6.70;6.00;;;11.30;99.90;;;;;;5054704;28;20095;-83
2022/05/09 01:49:29;;;;;;;6.30;5.70;;;11.30;99.90;;;;;;5053791;28;20035;-84
2022/05/09 01:49:29;;;;;;;8.00;5.80;;;11.20;99.90;;;;;;5047689;28;20040;-83
2022/05/09 01:51:57;;;;;;;6.13;5.57;;;11.20;99.90;;;;;;5024706;28;20053;-84
2022/05/09 01:54:23;;;;;;;5.72;5.22;;;11.20;99.90;;;;;;5041522;28;20029;-84
2022/05/09 01:56:49;;;;;;;6.38;5.78;;;11.20;99.90;;;;;;5024781;28;20433;-83
2022/05/09 01:59:14;;;;;;;6.68;6.00;;;11.10;99.90;;;;;;5036012;28;20030;-83
2022/05/09 02:01:54;;;;;;;6.93;6.28;;;11.10;99.90;;;;;;5040428;28;20021;-83
2022/05/09 02:04:23;;;;;;;6.63;6.03;;;11.10;99.90;;;;;;5040791;28;20021;-84
2022/05/09 02:06:50;;;;;;;6.85;6.13;;;11.10;99.90;;;;;;5040488;28;20014;-83
2022/05/09 02:09:16;;;;;;;7.07;6.38;;;11.10;99.90;;;;;;5037772;28;20017;-83
2022/05/09 02:11:42;;;;;;;6.93;6.22;;;11.10;99.90;;;;;;5039433;28;20040;-82
2022/05/09 02:14:08;;;;;;;6.50;5.90;;;11.10;99.90;;;;;;5039894;28;20362;-84
2022/05/09 02:16:34;;;;;;;6.55;5.95;;;11.10;99.90;;;;;;5021069;28;20022;-83
2022/05/09 02:19:00;;;;;;;6.55;5.90;;;11.00;99.90;;;;;;5036626;28;20516;-84
2022/05/09 02:21:26;;;;;;;6.40;5.80;;;11.00;99.90;;;;;;5038401;28;20025;-83
2022/05/09 02:23:52;;;;;;;6.32;5.75;;;11.00;99.90;;;;;;5039183;28;20053;-82
2022/05/09 02:26:17;;;;;;;6.28;5.68;;;11.00;99.90;;;;;;5038405;28;20052;-83
2022/05/09 02:28:43;;;;;;;6.53;5.93;;;11.00;99.90;;;;;;5038776;28;20080;-81
2022/05/09 02:31:09;;;;;;;7.70;6.90;;;11.00;99.90;;;;;;5039854;28;20101;-82
2022/05/09 02:33:35;;;;;;;8.13;7.28;;;10.90;99.90;;;;;;5040692;28;20022;-82
2022/05/09 02:36:01;;;;;;;14.82;13.20;;;10.90;99.90;;;;;;5035823;28;20075;-83
2022/05/09 02:38:28;;;;;;;14.68;12.70;;;11.00;99.90;;;;;;5037677;28;20034;-83
2022/05/09 02:40:54;;;;;;;13.45;11.45;;;11.00;99.90;;;;;;5022473;28;20065;-82
2022/05/09 02:43:20;;;;;;;11.68;10.48;;;11.00;99.90;;;;;;5016928;28;20092;-83
2022/05/09 02:45:46;;;;;;;9.82;8.82;;;11.00;99.90;;;;;;5016360;28;20034;-83
2022/05/09 02:48:13;;;;;;;9.93;8.55;;;11.10;99.90;;;;;;5016637;28;20034;-84
2022/05/09 02:50:39;;;;;;;8.70;7.80;;;11.10;99.90;;;;;;5017721;28;20521;-83
2022/05/09 02:53:10;;;;;;;7.55;6.70;;;11.10;99.90;;;;;;5020431;28;20026;-82
2022/05/09 02:55:36;;;;;;;7.47;6.78;;;11.10;99.90;;;;;;5025226;28;20724;-83
2022/05/09 02:58:03;;;;;;;7.50;6.72;;;11.20;99.90;;;;;;5038801;28;20056;-83
2022/05/09 03:00:30;;;;;;;7.68;6.97;;;11.20;99.90;;;;;;5039768;28;20021;-84
2022/05/09 03:05:42;;;;;;;6.82;6.13;;;11.10;99.90;;;;;;5044239;28;20428;-84
2022/05/09 03:08:11;;;;;;;7.85;6.88;;;11.10;99.90;;;;;;5038976;28;20083;-84
2022/05/09 03:10:38;;;;;;;7.47;6.40;;;11.00;99.90;;;;;;5044687;28;20025;-83
2022/05/09 03:13:06;;;;;;;7.68;6.95;;;11.00;99.90;;;;;;5040661;28;20641;-84
2022/05/09 03:15:40;;;;;;;6.65;6.05;;;10.90;99.90;;;;;;5042887;28;20024;-84
2022/05/09 03:18:07;;;;;;;6.85;6.15;;;10.90;99.90;;;;;;5018830;28;20026;-85
2022/05/09 03:20:33;;;;;;;6.40;5.80;;;10.90;99.90;;;;;;5018283;28;20018;-84
2022/05/09 03:22:59;;;;;;;7.00;6.30;;;10.80;99.90;;;;;;5001090;28;20037;-85
2022/05/09 03:25:26;;;;;;;6.75;6.15;;;10.80;99.90;;;;;;5023422;28;20082;-85
2022/05/09 03:27:52;;;;;;;7.00;6.30;;;10.80;99.90;;;;;;5028723;28;20021;-83
2022/05/09 03:30:18;;;;;;;6.45;5.85;;;10.80;99.90;;;;;;5038493;28;20036;-82
2022/05/09 03:32:45;;;;;;;7.80;7.00;;;10.80;99.90;;;;;;5038621;28;20033;-84
2022/05/09 03:35:11;;;;;;;9.05;8.15;;;10.80;99.90;;;;;;5038741;28;20027;-84
2022/05/09 03:37:37;;;;;;;8.45;7.57;;;10.80;99.90;;;;;;5038320;28;20104;-82
2022/05/09 03:40:05;;;;;;;7.30;6.50;;;10.80;99.90;;;;;;5039580;28;20032;-83
2022/05/09 03:42:31;;;;;;;7.00;6.40;;;10.80;99.90;;;;;;5021183;28;20029;-83
2022/05/09 03:44:57;;;;;;;7.28;6.60;;;10.80;99.90;;;;;;5020733;28;20017;-83
2022/05/09 03:47:23;;;;;;;7.22;6.53;;;10.80;99.90;;;;;;5038988;28;20045;-83
2022/05/09 03:49:50;;;;;;;9.05;7.38;;;10.80;99.90;;;;;;5038539;28;20018;-82
2022/05/09 03:52:16;;;;;;;9.55;8.55;;;10.80;99.90;;;;;;5042030;28;20033;-84
2022/05/09 03:54:42;;;;;;;10.45;9.45;;;10.70;99.90;;;;;;5046730;28;20030;-82
2022/05/09 03:57:08;;;;;;;10.13;8.88;;;10.70;99.90;;;;;;5039299;28;20331;-82
2022/05/09 03:59:34;;;;;;;10.45;9.20;;;10.70;99.90;;;;;;5038048;28;20453;-82
2022/05/09 04:02:00;;;;;;;9.82;8.68;;;10.70;99.90;;;;;;5037755;28;20085;-83
2022/05/09 04:04:28;;;;;;;9.90;8.32;;;10.70;99.90;;;;;;5038393;28;20024;-82
2022/05/09 04:06:54;;;;;;;9.35;8.40;;;10.70;99.90;;;;;;5044965;28;20028;-84
2022/05/09 04:09:21;;;;;;;11.68;10.07;;;10.70;99.90;;;;;;5054495;28;20026;-83
2022/05/09 04:11:48;;;;;;;12.18;10.50;;;10.70;99.90;;;;;;5028061;28;20033;-82
2022/05/09 04:16:49;;;;;;;10.40;9.15;;;10.70;99.90;;;;;;5040286;28;20367;-83
2022/05/09 04:17:03;;;;;;;10.05;8.98;;;10.70;99.90;;;;;;5053306;28;20052;-83
2022/05/09 04:19:29;;;;;;;14.63;12.02;;;10.60;99.90;;;;;;5053257;28;20029;-83
2022/05/09 04:21:56;;;;;;;14.70;12.20;;;10.70;99.90;;;;;;5042351;28;20087;-83
2022/05/09 04:24:22;;;;;;;13.55;11.57;;;10.70;99.90;;;;;;5043572;28;20031;-83
2022/05/09 04:26:48;;;;;;;13.75;12.15;;;10.60;99.90;;;;;;5043269;28;20089;-83
2022/05/09 04:29:16;;;;;;;18.15;14.80;;;10.60;99.90;;;;;;5024756;28;20327;-83
2022/05/09 04:31:42;;;;;;;17.83;13.77;;;10.60;99.90;;;;;;5022237;28;20036;-82
2022/05/09 04:34:08;;;;;;;16.58;14.65;;;10.60;99.90;;;;;;5044403;28;20033;-81
2022/05/09 04:36:35;;;;;;;14.48;12.98;;;10.60;99.90;;;;;;5027685;28;20026;-80
2022/05/09 04:39:01;;;;;;;16.60;14.38;;;10.60;99.90;;;;;;5040879;28;20386;-83
2022/05/09 04:41:27;;;;;;;17.58;14.02;;;10.60;99.90;;;;;;5024817;28;20030;-82
2022/05/09 04:43:56;;;;;;;13.75;12.30;;;10.60;99.90;;;;;;5042951;28;20026;-83
2022/05/09 04:46:24;;;;;;;13.32;11.18;;;10.70;99.90;;;;;;5043372;28;20038;-82
2022/05/09 04:48:50;;;;;;;10.27;9.18;;;10.70;99.90;;;;;;5039718;28;20457;-83
2022/05/09 04:51:16;;;;;;;11.07;9.45;;;10.70;99.90;;;;;;5040801;28;20032;-82
2022/05/09 04:53:42;;;;;;;9.88;8.85;;;10.80;99.90;;;;;;5041313;28;20097;-82
2022/05/09 04:56:07;;;;;;;9.40;7.47;;;10.90;99.90;;;;;;5036656;28;20034;-83
2022/05/09 04:58:33;;;;;;;8.50;7.63;;;11.00;99.90;;;;;;5033190;28;20161;-82
2022/05/09 05:00:59;;;;;;;8.18;7.43;;;11.10;99.90;;;;;;5042247;28;20022;-82
2022/05/09 05:03:25;;;;;;;7.65;6.95;;;11.20;99.90;;;;;;5041755;28;20053;-83
2022/05/09 05:05:52;;;;;;;7.03;6.32;;;11.40;99.90;;;;;;5040318;28;20047;-83
2022/05/09 05:08:18;;;;;;;6.95;6.20;;;11.50;99.90;;;;;;5039945;28;20029;-82
2022/05/09 05:10:44;;;;;;;6.22;5.63;;;11.60;99.90;;;;;;5040687;28;20486;-82
2022/05/09 05:13:13;;;;;;;6.25;5.65;;;11.70;99.90;;;;;;5040486;28;20055;-82
2022/05/09 05:15:39;;;;;;;7.32;6.63;;;11.90;99.90;;;;;;5040871;28;20029;-82
2022/05/09 05:18:05;;;;;;;6.70;6.07;;;12.10;99.90;;;;;;5040242;28;20444;-82
2022/05/09 05:20:31;;;;;;;6.53;5.90;;;12.50;99.90;;;;;;5040492;28;20041;-82
2022/05/09 05:22:56;;;;;;;7.07;6.47;;;12.90;99.90;;;;;;5041040;28;20033;-82
2022/05/09 05:25:28;;;;;;;7.45;6.63;;;13.20;99.90;;;;;;5023079;28;20025;-83
2022/05/09 05:27:54;;;;;;;10.63;9.37;;;13.40;99.90;;;;;;5035662;28;20108;-83
2022/05/09 05:30:21;;;;;;;11.75;10.55;;;13.80;99.90;;;;;;5053149;28;20272;-83
2022/05/09 05:32:48;;;;;;;15.63;12.25;;;14.20;99.90;;;;;;5054370;28;20044;-83
2022/05/09 05:35:20;;;;;;;16.23;12.70;;;14.50;99.90;;;;;;5043790;28;20099;-83
2022/05/09 05:37:46;;;;;;;14.45;12.45;;;14.70;99.90;;;;;;5043124;28;20029;-82
2022/05/09 05:40:13;;;;;;;15.23;12.15;;;14.70;99.90;;;;;;5041045;28;20316;-84
2022/05/09 05:42:41;;;;;;;14.02;11.18;;;14.80;99.90;;;;;;5041347;28;20033;-84
2022/05/09 05:45:08;;;;;;;15.75;11.98;;;15.00;99.90;;;;;;5041889;28;20101;-83
2022/05/09 05:47:34;;;;;;;14.52;11.93;;;15.00;99.90;;;;;;5106738;22;20226;-85
2022/05/09 05:50:00;;;;;;;14.20;11.93;;;15.20;99.90;;;;;;5061465;28;20009;-86
2022/05/09 05:52:25;;;;;;;14.25;11.52;;;15.40;99.90;;;;;;5078254;28;20029;-86
2022/05/09 05:54:51;;;;;;;13.88;11.25;;;15.40;99.90;;;;;;5059316;28;20037;-85
2022/05/09 05:57:55;;;;;;;14.27;12.15;;;15.70;99.70;;;;;;5090449;28;20032;-85
2022/05/09 06:00:22;;;;;;;12.20;10.07;;;16.90;97.70;;;;;;5069052;28;20033;-86
2022/05/09 06:02:50;;;;;;;11.63;9.38;;;17.80;95.30;;;;;;5070421;28;20051;-87
2022/05/09 06:05:18;;;;;;;9.18;7.80;;;19.00;92.10;;;;;;5077617;28;20021;-86
2022/05/09 06:07:47;;;;;;;9.13;8.23;;;19.90;90.90;;;;;;5077598;28;20051;-85
2022/05/09 06:10:15;;;;;;;8.88;7.97;;;19.90;87.80;;;;;;5076376;28;20016;-86
2022/05/09 06:12:41;;;;;;;9.75;8.77;;;19.90;85.90;;;;;;5063425;28;20032;-86
2022/05/09 06:15:32;;;;;;;8.20;7.40;;;20.20;84.50;;;;;;5060520;28;20054;-86
2022/05/09 06:18:00;;;;;;;9.52;8.38;;;20.10;83.60;;;;;;5052525;28;20047;-86
2022/05/09 06:20:28;;;;;;;10.52;9.43;;;19.70;84.00;;;;;;5052424;28;20065;-86
2022/05/09 06:22:55;;;;;;;11.27;10.10;;;19.90;84.10;;;;;;5067496;28;20032;-85
2022/05/09 06:25:21;;;;;;;8.48;7.68;;;20.40;82.50;;;;;;5055407;28;20016;-86
2022/05/09 06:27:48;;;;;;;7.07;6.38;;;21.70;82.10;;;;;;5075750;28;20115;-86
2022/05/09 06:30:16;;;;;;;6.45;5.90;;;23.60;74.90;;;;;;5067765;28;20059;-86
2022/05/09 06:32:41;;;;;;;12.13;10.82;;;23.30;70.50;;;;;;5071594;28;20016;-86
2022/05/09 06:35:11;;;;;;;13.57;11.48;;;22.40;69.80;;;;;;5051168;28;20096;-86
2022/05/09 06:37:41;;;;;;;10.52;9.48;;;21.20;73.60;;;;;;5065207;28;20092;-85
2022/05/09 06:40:12;;;;;;;10.52;9.43;;;21.60;75.50;;;;;;5065146;28;20033;-85
2022/05/09 06:42:38;;;;;;;11.23;9.70;;;21.90;72.90;;;;;;5053630;28;20020;-86
2022/05/09 06:45:05;;;;;;;9.48;8.57;;;21.80;75.00;;;;;;5043029;28;20059;-86
2022/05/09 06:47:31;;;;;;;8.50;7.70;;;23.30;71.60;;;;;;5043431;28;20099;-86
2022/05/09 06:50:07;;;;;;;10.95;9.43;;;24.40;66.40;;;;;;5042215;28;20025;-86
2022/05/09 06:52:34;;;;;;;8.63;7.82;;;23.80;65.90;;;;;;5071679;28;20055;-86
2022/05/09 06:55:00;;;;;;;8.85;8.05;;;24.10;66.20;;;;;;5065597;28;20047;-86
2022/05/09 06:57:27;;;;;;;7.03;6.43;;;24.90;63.30;;;;;;5062454;28;20083;-85
2022/05/09 06:59:52;;;;;;;6.97;6.28;;;25.80;61.50;;;;;;5084449;28;20024;-86
2022/05/09 07:02:18;;;;;;;6.18;5.68;;;26.40;59.80;;;;;;5075719;28;20029;-86
2022/05/09 07:04:44;;;;;;;7.32;6.63;;;25.20;58.10;;;;;;5074339;28;20051;-83
2022/05/09 07:07:10;;;;;;;13.93;12.52;;;22.90;62.40;;;;;;5076098;28;20040;-85
2022/05/09 07:10:28;;;;;;;14.98;13.27;;;21.00;67.80;;;;;;5084966;28;20111;-86
2022/05/09 07:12:58;;;;;;;12.75;10.85;;;19.10;75.60;;;;;;5058780;28;20028;-85
2022/05/09 07:15:27;;;;;;;11.52;10.35;;;18.10;81.80;;;;;;5059300;28;20036;-83
2022/05/09 07:17:54;;;;;;;11.52;9.38;;;17.70;84.90;;;;;;5048723;28;20028;-83
2022/05/09 07:20:30;;;;;;;12.30;11.10;;;17.30;87.90;;;;;;5071754;28;20016;-85
2022/05/09 07:23:14;;;;;;;13.70;12.30;;;17.30;89.60;;;;;;5079610;28;20021;-86
2022/05/09 07:29:09;;;;;;;18.42;16.45;;;17.30;90.60;;;;;;5065550;28;20028;-85
2022/05/09 07:31:55;;;;;;;18.45;16.35;;;17.20;90.50;;;;;;5061241;28;20150;-85
2022/05/09 07:34:59;;;;;;;15.52;14.07;;;17.10;91.00;;;;;;5041364;28;20075;-85
2022/05/09 07:37:53;;;;;;;16.08;13.30;;;17.20;91.40;;;;;;5059548;28;20024;-85
2022/05/09 07:40:22;;;;;;;16.98;15.27;;;17.40;91.70;;;;;;5042937;28;20021;-84
2022/05/09 07:43:31;;;;;;;15.48;13.90;;;17.40;91.20;;;;;;5042511;28;20031;-86
2022/05/09 07:46:03;;;;;;;15.60;13.98;;;17.20;91.30;;;;;;5003537;28;20105;-85
2022/05/09 07:49:25;;;;;;;14.00;12.60;;;16.90;92.10;;;;;;5004811;28;20088;-86
2022/05/09 07:51:51;;;;;;;16.63;14.68;;;17.00;92.50;;;;;;5004656;28;20024;-86
2022/05/09 07:54:17;;;;;;;17.02;14.25;;;17.20;91.60;;;;;;5040833;28;20035;-85
2022/05/09 07:57:17;;;;;;;16.50;13.43;;;17.20;91.50;;;;;;5060975;28;20033;-86
2022/05/09 07:59:43;;;;;;;13.85;12.27;;;17.30;91.30;;;;;;5062315;28;20028;-85
2022/05/09 08:02:50;;;;;;;12.43;10.93;;;17.50;91.20;;;;;;5065285;28;20370;-85
2022/05/09 08:05:28;;;;;;;12.55;11.02;;;17.60;90.90;;;;;;5051839;28;20075;-86
2022/05/09 08:08:01;;;;;;;14.30;12.88;;;17.50;90.60;;;;;;5066052;28;20499;-85
2022/05/09 08:10:27;;;;;;;14.13;11.15;;;17.70;90.50;;;;;;5069352;28;20025;-85
2022/05/09 08:12:53;;;;;;;15.70;12.05;;;17.80;90.30;;;;;;5066403;28;20025;-86
2022/05/09 08:15:20;;;;;;;14.02;12.45;;;17.80;90.10;;;;;;5069838;28;20052;-86
2022/05/09 08:17:47;;;;;;;13.35;12.00;;;17.90;90.10;;;;;;5068185;28;20051;-86
2022/05/09 08:20:15;;;;;;;11.93;9.85;;;18.20;90.20;;;;;;5068042;28;20049;-86
2022/05/09 08:22:41;;;;;;;12.32;11.02;;;18.80;88.90;;;;;;5057457;28;20043;-86
2022/05/09 08:25:09;;;;;;;12.93;11.63;;;19.20;86.20;;;;;;5077762;28;20040;-85
2022/05/09 08:27:36;;;;;;;13.40;12.00;;;19.20;83.30;;;;;;5092969;28;20017;-86
2022/05/09 08:30:04;;;;;;;10.10;9.10;;;19.30;83.70;;;;;;5063143;28;20036;-87
2022/05/09 08:32:31;;;;;;;10.93;9.30;;;19.30;83.70;;;;;;5066298;28;20032;-86
2022/05/09 08:34:59;;;;;;;10.85;9.75;;;19.50;82.70;;;;;;5049676;28;20025;-86
2022/05/09 08:37:25;;;;;;;10.98;9.88;;;19.10;81.20;;;;;;5068418;28;20057;-84
2022/05/09 08:39:51;;;;;;;10.98;9.90;;;18.80;82.60;;;;;;5072329;28;20013;-86
2022/05/09 08:42:37;;;;;;;11.20;10.10;;;18.50;83.60;;;;;;5071702;28;20025;-87
2022/05/09 08:45:47;;;;;;;11.80;10.07;;;18.50;85.50;;;;;;5071062;28;20029;-85
2022/05/09 08:48:50;;;;;;;10.43;9.38;;;18.80;85.20;;;;;;5003936;28;20082;-84
2022/05/09 08:51:28;;;;;;;9.82;8.85;;;19.00;84.60;;;;;;4962967;29;20043;-84
2022/05/09 08:54:01;;;;;;;10.57;9.57;;;19.00;84.00;;;;;;5065016;28;20045;-84
2022/05/09 08:59:58;;;;;;;14.40;12.45;;;19.00;82.80;;;;;;5083783;28;20062;-85
2022/05/09 09:02:36;;;;;;;15.45;11.70;;;18.80;84.20;;;;;;5066081;28;20051;-83
2022/05/09 09:05:03;;;;;;;8.70;7.80;;;18.90;84.50;;;;;;5083329;28;20013;-84
2022/05/09 09:07:41;;;;;;;8.48;7.68;;;19.10;85.30;;;;;;5082851;28;20013;-85
2022/05/09 09:10:26;;;;;;;10.02;9.02;;;19.60;83.00;;;;;;5073991;28;20029;-85
2022/05/09 09:12:57;;;;;;;12.65;9.52;;;19.60;81.90;;;;;;5065936;28;20021;-86
2022/05/09 09:15:35;;;;;;;8.98;7.78;;;19.90;80.80;;;;;;5047411;28;20031;-85
2022/05/09 09:18:12;;;;;;;12.18;11.07;;;20.60;79.40;;;;;;5080473;28;20029;-85
2022/05/09 09:20:49;;;;;;;13.35;11.40;;;21.00;76.40;;;;;;5075056;28;20013;-84
2022/05/09 09:23:30;;;;;;;11.38;9.98;;;20.70;76.20;;;;;;5067880;28;20163;-85
2022/05/09 09:26:20;;;;;;;13.77;12.20;;;20.30;77.90;;;;;;5048234;28;20411;-84
2022/05/09 09:29:06;;;;;;;9.75;8.80;;;19.80;78.60;;;;;;5047699;28;20451;-85
2022/05/09 09:31:37;;;;;;;13.32;8.75;;;19.70;80.50;;;;;;5046809;28;20025;-83
2022/05/09 09:34:29;;;;;;;8.67;7.17;;;19.80;76.30;;;;;;5063559;28;20120;-85
2022/05/09 09:37:05;;;;;;;5.75;5.25;;;19.70;75.80;;;;;;5050703;28;20033;-84
2022/05/09 09:39:31;;;;;;;14.70;7.63;;;19.70;77.00;;;;;;5083265;28;20032;-85
2022/05/09 09:41:56;;;;;;;7.00;6.28;;;20.10;74.80;;;;;;5047930;28;20029;-84
2022/05/09 09:44:25;;;;;;;9.77;6.25;;;20.10;74.70;;;;;;5063547;28;20032;-84
2022/05/09 09:47:25;;;;;;;12.52;5.72;;;20.20;74.10;;;;;;5077189;28;20025;-84
2022/05/09 09:50:13;;;;;;;8.98;7.15;;;20.40;73.90;;;;;;5045183;28;20021;-86
2022/05/09 09:52:49;;;;;;;8.05;7.30;;;20.70;72.40;;;;;;5056898;28;20029;-85
2022/05/09 09:55:32;;;;;;;7.25;6.63;;;20.60;71.30;;;;;;5062613;28;20056;-86
2022/05/09 09:58:18;;;;;;;6.22;5.63;;;20.40;73.20;;;;;;5047399;28;20041;-84
2022/05/09 10:00:44;;;;;;;7.88;6.82;;;20.80;73.10;;;;;;5050420;28;20649;-84
2022/05/09 10:03:27;;;;;;;6.80;6.18;;;20.70;70.50;;;;;;5070355;28;20100;-84
2022/05/09 10:05:55;;;;;;;7.38;5.88;;;20.50;72.00;;;;;;5072118;28;20031;-85
2022/05/09 10:08:42;;;;;;;6.93;6.28;;;20.70;71.30;;;;;;5069233;28;20017;-86
2022/05/09 10:11:08;;;;;;;5.45;4.95;;;21.00;69.90;;;;;;5048106;28;20362;-85
2022/05/09 10:13:35;;;;;;;5.95;5.35;;;21.40;68.60;;;;;;5063402;28;20100;-85
2022/05/09 10:16:17;;;;;;;5.43;4.93;;;21.90;67.70;;;;;;5046639;28;20021;-85
2022/05/09 10:18:43;;;;;;;7.30;5.72;;;22.00;65.90;;;;;;5047042;28;20552;-85
2022/05/09 10:26:55;;;;;;;8.82;5.82;;;21.40;66.60;;;;;;5076996;28;20388;-85
2022/05/09 10:29:24;;;;;;;6.18;5.57;;;21.50;66.00;;;;;;5063207;28;20489;-86
2022/05/09 10:31:55;;;;;;;7.13;6.07;;;21.50;66.00;;;;;;5060031;28;20084;-85
2022/05/09 10:34:27;;;;;;;8.43;6.50;;;21.30;66.20;;;;;;5045106;28;20028;-84
2022/05/09 10:37:02;;;;;;;6.63;5.88;;;21.20;67.50;;;;;;5061785;28;20510;-85
2022/05/09 10:39:36;;;;;;;7.05;6.30;;;21.20;66.90;;;;;;5061595;28;20029;-84
2022/05/09 10:42:07;;;;;;;5.93;5.43;;;21.40;66.60;;;;;;5083693;28;20029;-84
2022/05/09 10:44:41;;;;;;;6.68;6.07;;;21.70;65.50;;;;;;5080803;28;20012;-84
2022/05/09 10:47:15;;;;;;;6.30;5.70;;;21.70;64.50;;;;;;5081435;28;20051;-85
2022/05/09 10:49:45;;;;;;;6.63;5.60;;;21.90;64.70;;;;;;5081939;28;20035;-84
2022/05/09 10:52:39;;;;;;;6.25;5.65;;;22.00;64.40;;;;;;5071721;28;20413;-84
2022/05/09 10:55:23;;;;;;;4.97;4.50;;;22.10;63.40;;;;;;5043508;28;20082;-85
2022/05/09 10:58:07;;;;;;;6.90;6.30;;;22.20;62.90;;;;;;5044482;28;20123;-84
2022/05/09 11:00:43;;;;;;;7.78;6.75;;;22.30;62.40;;;;;;5042650;28;20049;-85
2022/05/09 11:03:15;;;;;;;6.82;6.03;;;22.10;62.60;;;;;;5042961;28;20059;-84
2022/05/09 11:06:08;;;;;;;8.80;6.20;;;22.00;63.90;;;;;;5062374;28;20025;-84
2022/05/09 11:09:06;;;;;;;8.50;6.05;;;21.90;63.30;;;;;;5089517;28;20033;-86
2022/05/09 11:11:48;;;;;;;8.40;5.85;;;21.90;62.50;;;;;;5073867;28;20341;-83
2022/05/09 11:14:28;;;;;;;6.70;6.15;;;22.00;61.80;;;;;;5092733;28;20032;-84
2022/05/09 11:17:29;;;;;;;8.93;5.78;;;22.00;61.50;;;;;;5092772;28;20028;-83
2022/05/09 11:20:23;;;;;;;5.43;4.95;;;22.10;61.40;;;;;;5072443;28;20067;-86
2022/05/09 11:23:14;;;;;;;6.45;5.20;;;22.10;62.20;;;;;;5072571;28;20036;-84
2022/05/09 11:25:46;;;;;;;7.47;4.75;;;22.40;60.20;;;;;;5053666;28;20036;-84
2022/05/09 11:28:23;;;;;;;10.07;4.80;;;22.40;59.30;;;;;;5065479;28;20535;-85
2022/05/09 11:31:01;;;;;;;8.60;4.65;;;22.60;59.20;;;;;;5061294;28;20029;-85
2022/05/09 11:33:34;;;;;;;4.55;4.15;;;22.80;57.60;;;;;;5063943;28;20434;-86
2022/05/09 11:36:40;;;;;;;6.20;4.80;;;22.70;57.80;;;;;;5062918;28;20039;-85
2022/05/09 11:39:14;;;;;;;8.32;4.47;;;22.90;56.60;;;;;;5059722;28;20021;-84
2022/05/09 11:45:13;;;;;;;7.03;4.03;;;23.00;55.50;;;;;;5065081;28;20039;-85
2022/05/09 11:48:21;;;;;;;5.05;4.32;;;23.00;55.90;;;;;;5064307;28;20037;-85
2022/05/09 11:50:58;;;;;;;9.65;4.60;;;23.10;55.50;;;;;;5064770;28;20029;-84
2022/05/09 11:53:28;;;;;;;5.22;4.15;;;23.10;55.50;;;;;;5064169;28;20493;-85
2022/05/09 11:55:54;;;;;;;3.83;3.53;;;23.40;55.40;;;;;;5065595;28;20008;-84
2022/05/09 11:58:21;;;;;;;4.68;4.10;;;23.80;54.90;;;;;;5044161;28;20040;-85
2022/05/09 12:00:50;;;;;;;5.85;4.53;;;24.20;54.30;;;;;;5049582;28;20032;-84
2022/05/09 12:03:41;;;;;;;5.00;4.13;;;24.30;53.00;;;;;;5088150;22;20040;-83
2022/05/09 12:06:29;;;;;;;5.10;4.60;;;23.90;54.00;;;;;;5046658;28;20386;-82
2022/05/09 12:08:56;;;;;;;4.50;4.10;;;23.80;53.20;;;;;;5045330;28;20025;-81
2022/05/09 12:11:33;;;;;;;6.00;4.07;;;23.80;53.30;;;;;;5062087;28;20031;-82
2022/05/09 12:14:01;;;;;;;3.53;3.20;;;23.60;53.20;;;;;;5064977;28;20096;-82
2022/05/09 12:16:36;;;;;;;7.53;4.32;;;23.50;53.60;;;;;;5075210;28;20032;-84
2022/05/09 12:19:35;;;;;;;3.85;3.55;;;23.90;52.60;;;;;;5075811;28;20075;-82
2022/05/09 12:22:42;;;;;;;5.60;4.13;;;23.90;52.40;;;;;;5028620;28;20033;-83
2022/05/09 12:25:36;;;;;;;3.95;3.65;;;23.80;52.30;;;;;;5044969;28;20123;-82
2022/05/09 12:28:20;;;;;;;4.35;3.67;;;23.80;51.70;;;;;;5043786;28;20024;-81
2022/05/09 12:31:04;;;;;;;4.00;3.58;;;23.90;51.20;;;;;;5062182;28;20021;-82
2022/05/09 12:33:43;;;;;;;4.65;3.85;;;24.20;50.70;;;;;;5041579;28;20048;-83
2022/05/09 12:36:13;;;;;;;3.95;3.65;;;24.00;51.10;;;;;;5042010;28;20036;-82
2022/05/09 12:38:49;;;;;;;5.30;3.78;;;23.70;51.70;;;;;;5038297;28;20108;-83
2022/05/09 12:41:24;;;;;;;6.72;3.85;;;23.60;52.60;;;;;;5021590;28;20028;-84
2022/05/09 12:44:22;;;;;;;4.00;3.53;;;23.90;51.20;;;;;;5021324;28;20025;-83
2022/05/09 12:47:05;;;;;;;7.13;4.15;;;23.90;50.30;;;;;;5009058;28;20033;-83
2022/05/09 12:49:36;;;;;;;5.82;3.83;;;23.70;51.20;;;;;;5037878;28;20063;-83
2022/05/09 12:52:03;;;;;;;3.92;3.55;;;23.80;51.30;;;;;;5020079;28;20030;-82
2022/05/09 12:54:30;;;;;;;5.45;3.75;;;24.00;51.00;;;;;;5040429;28;20458;-82
2022/05/09 12:56:59;;;;;;;3.67;3.35;;;24.40;50.40;;;;;;5041332;28;20026;-81
2022/05/09 12:59:27;;;;;;;6.63;4.55;;;24.60;50.90;;;;;;5029816;28;20037;-82
2022/05/09 13:02:01;;;;;;;4.53;4.13;;;25.00;50.30;;;;;;5042974;28;20037;-83
2022/05/09 13:04:30;;;;;;;7.28;3.78;;;25.00;50.50;;;;;;5061236;28;20021;-81
2022/05/09 13:07:05;;;;;;;6.75;3.90;;;24.90;49.60;;;;;;5062603;28;20216;-82
2022/05/09 13:10:16;;;;;;;4.22;3.65;;;25.00;49.00;;;;;;5061714;28;20027;-82
2022/05/09 13:12:44;;;;;;;6.30;4.18;;;24.90;50.10;;;;;;5037762;28;20060;-81
2022/05/09 13:15:16;;;;;;;4.75;3.65;;;25.10;49.70;;;;;;5045333;28;20124;-82
2022/05/09 13:17:46;;;;;;;5.03;4.00;;;24.50;50.50;;;;;;5043997;28;20025;-81
2022/05/09 13:20:19;;;;;;;5.72;4.20;;;24.20;51.50;;;;;;5043604;28;20025;-83
2022/05/09 13:22:44;;;;;;;7.15;4.32;;;24.30;52.30;;;;;;5028432;28;20030;-81
2022/05/09 13:25:37;;;;;;;6.30;4.50;;;24.50;52.20;;;;;;5043155;28;20028;-82
2022/05/09 13:28:10;;;;;;;4.93;4.53;;;24.80;51.10;;;;;;5047368;28;20124;-83